sensor_id;sensor_type;location;lat;lon;timestamp;P1;durP1;ratioP1;P2;durP2;ratioP2
12052;SDS011;6087;48.982;12.064;2023-04-06T00:01:44;5.97;;;3.97;;
12052;SDS011;6087;48.982;12.064;2023-04-06T00:04:12;7.90;;;4.70;;
12052;SDS011;6087;48.982;12.064;2023-04-06T00:06:39;5.53;;;4.20;;
12052;SDS011;6087;48.982;12.064;2023-04-06T00:09:07;7.53;;;4.30;;
12052;SDS011;6087;48.982;12.064;2023-04-06T00:11:34;5.00;;;4.00;;
12052;SDS011;6087;48.982;12.064;2023-04-06T00:14:01;4.63;;;3.73;;
12052;SDS011;6087;48.982;12.064;2023-04-06T00:16:28;6.60;;;4.03;;
12052;SDS011;6087;48.982;12.064;2023-04-06T00:18:55;4.63;;;3.80;;
12052;SDS011;6087;48.982;12.064;2023-04-06T00:21:22;4.07;;;3.67;;
12052;SDS011;6087;48.982;12.064;2023-04-06T00:23:50;4.37;;;3.97;;
12052;SDS011;6087;48.982;12.064;2023-04-06T00:26:18;5.93;;;3.90;;
12052;SDS011;6087;48.982;12.064;2023-04-06T00:28:46;5.37;;;3.93;;
12052;SDS011;6087;48.982;12.064;2023-04-06T00:31:15;5.53;;;3.70;;
12052;SDS011;6087;48.982;12.064;2023-04-06T00:33:42;6.40;;;4.23;;
12052;SDS011;6087;48.982;12.064;2023-04-06T00:36:08;5.33;;;3.77;;
12052;SDS011;6087;48.982;12.064;2023-04-06T00:38:35;5.10;;;3.60;;
12052;SDS011;6087;48.982;12.064;2023-04-06T00:41:04;4.67;;;3.80;;
12052;SDS011;6087;48.982;12.064;2023-04-06T00:43:32;5.80;;;3.90;;
12052;SDS011;6087;48.982;12.064;2023-04-06T00:45:59;7.73;;;4.50;;
12052;SDS011;6087;48.982;12.064;2023-04-06T00:48:26;4.77;;;3.63;;
12052;SDS011;6087;48.982;12.064;2023-04-06T00:50:58;4.83;;;3.80;;
12052;SDS011;6087;48.982;12.064;2023-04-06T00:53:28;4.90;;;3.80;;
12052;SDS011;6087;48.982;12.064;2023-04-06T00:56:00;4.80;;;3.90;;
12052;SDS011;6087;48.982;12.064;2023-04-06T00:58:29;7.43;;;4.27;;
12052;SDS011;6087;48.982;12.064;2023-04-06T01:01:03;6.27;;;4.00;;
12052;SDS011;6087;48.982;12.064;2023-04-06T01:03:30;6.13;;;4.23;;
12052;SDS011;6087;48.982;12.064;2023-04-06T01:05:57;6.07;;;3.90;;
12052;SDS011;6087;48.982;12.064;2023-04-06T01:08:24;5.87;;;4.00;;
12052;SDS011;6087;48.982;12.064;2023-04-06T01:10:58;3.87;;;3.47;;
12052;SDS011;6087;48.982;12.064;2023-04-06T01:13:26;4.93;;;3.80;;
12052;SDS011;6087;48.982;12.064;2023-04-06T01:15:53;4.67;;;3.87;;
12052;SDS011;6087;48.982;12.064;2023-04-06T01:18:26;7.27;;;3.53;;
12052;SDS011;6087;48.982;12.064;2023-04-06T01:20:53;5.07;;;3.70;;
12052;SDS011;6087;48.982;12.064;2023-04-06T01:23:22;5.43;;;4.00;;
12052;SDS011;6087;48.982;12.064;2023-04-06T01:25:49;5.97;;;4.43;;
12052;SDS011;6087;48.982;12.064;2023-04-06T01:28:16;6.47;;;4.07;;
12052;SDS011;6087;48.982;12.064;2023-04-06T01:30:46;3.83;;;3.50;;
12052;SDS011;6087;48.982;12.064;2023-04-06T01:33:13;4.80;;;4.10;;
12052;SDS011;6087;48.982;12.064;2023-04-06T01:35:40;5.63;;;4.30;;
12052;SDS011;6087;48.982;12.064;2023-04-06T01:38:07;4.83;;;3.80;;
12052;SDS011;6087;48.982;12.064;2023-04-06T01:40:35;5.47;;;3.90;;
12052;SDS011;6087;48.982;12.064;2023-04-06T01:43:02;8.00;;;4.23;;
12052;SDS011;6087;48.982;12.064;2023-04-06T01:45:32;5.13;;;4.07;;
12052;SDS011;6087;48.982;12.064;2023-04-06T01:47:59;5.30;;;4.00;;
12052;SDS011;6087;48.982;12.064;2023-04-06T01:50:26;5.27;;;4.20;;
12052;SDS011;6087;48.982;12.064;2023-04-06T01:52:53;6.30;;;4.10;;
12052;SDS011;6087;48.982;12.064;2023-04-06T01:55:20;4.97;;;3.97;;
12052;SDS011;6087;48.982;12.064;2023-04-06T01:57:48;6.43;;;4.23;;
12052;SDS011;6087;48.982;12.064;2023-04-06T02:00:15;4.93;;;4.33;;
12052;SDS011;6087;48.982;12.064;2023-04-06T02:02:42;4.87;;;4.43;;
12052;SDS011;6087;48.982;12.064;2023-04-06T02:05:09;6.27;;;4.30;;
12052;SDS011;6087;48.982;12.064;2023-04-06T02:07:36;5.40;;;4.40;;
12052;SDS011;6087;48.982;12.064;2023-04-06T02:10:04;6.67;;;4.80;;
12052;SDS011;6087;48.982;12.064;2023-04-06T02:12:37;5.80;;;4.47;;
12052;SDS011;6087;48.982;12.064;2023-04-06T02:15:05;6.63;;;4.77;;
12052;SDS011;6087;48.982;12.064;2023-04-06T02:17:33;6.57;;;4.27;;
12052;SDS011;6087;48.982;12.064;2023-04-06T02:20:00;8.03;;;4.03;;
12052;SDS011;6087;48.982;12.064;2023-04-06T02:22:27;6.40;;;4.53;;
12052;SDS011;6087;48.982;12.064;2023-04-06T02:24:54;6.63;;;4.40;;
12052;SDS011;6087;48.982;12.064;2023-04-06T02:27:21;6.37;;;4.63;;
12052;SDS011;6087;48.982;12.064;2023-04-06T02:29:47;6.20;;;4.57;;
12052;SDS011;6087;48.982;12.064;2023-04-06T02:32:16;5.90;;;4.40;;
12052;SDS011;6087;48.982;12.064;2023-04-06T02:34:43;5.67;;;4.33;;
12052;SDS011;6087;48.982;12.064;2023-04-06T02:37:10;6.70;;;4.00;;
12052;SDS011;6087;48.982;12.064;2023-04-06T02:39:37;6.97;;;3.80;;
12052;SDS011;6087;48.982;12.064;2023-04-06T02:42:04;4.43;;;4.03;;
12052;SDS011;6087;48.982;12.064;2023-04-06T02:44:31;4.83;;;3.90;;
12052;SDS011;6087;48.982;12.064;2023-04-06T02:46:57;6.70;;;4.67;;
12052;SDS011;6087;48.982;12.064;2023-04-06T02:49:26;5.97;;;4.73;;
12052;SDS011;6087;48.982;12.064;2023-04-06T02:51:53;6.17;;;4.67;;
12052;SDS011;6087;48.982;12.064;2023-04-06T02:54:20;5.33;;;4.50;;
12052;SDS011;6087;48.982;12.064;2023-04-06T02:56:47;4.80;;;4.20;;
12052;SDS011;6087;48.982;12.064;2023-04-06T02:59:14;4.60;;;4.20;;
12052;SDS011;6087;48.982;12.064;2023-04-06T03:01:41;6.70;;;4.37;;
12052;SDS011;6087;48.982;12.064;2023-04-06T03:04:08;6.37;;;4.73;;
12052;SDS011;6087;48.982;12.064;2023-04-06T03:06:37;6.03;;;3.83;;
12052;SDS011;6087;48.982;12.064;2023-04-06T03:09:05;8.00;;;4.33;;
12052;SDS011;6087;48.982;12.064;2023-04-06T03:11:32;6.90;;;5.20;;
12052;SDS011;6087;48.982;12.064;2023-04-06T03:13:59;5.43;;;3.90;;
12052;SDS011;6087;48.982;12.064;2023-04-06T03:16:29;5.07;;;4.50;;
12052;SDS011;6087;48.982;12.064;2023-04-06T03:18:58;7.73;;;4.47;;
12052;SDS011;6087;48.982;12.064;2023-04-06T03:21:25;5.17;;;4.67;;
12052;SDS011;6087;48.982;12.064;2023-04-06T03:23:56;7.63;;;5.20;;
12052;SDS011;6087;48.982;12.064;2023-04-06T03:26:23;5.97;;;4.23;;
12052;SDS011;6087;48.982;12.064;2023-04-06T03:28:50;7.47;;;4.20;;
12052;SDS011;6087;48.982;12.064;2023-04-06T03:31:17;4.93;;;4.23;;
12052;SDS011;6087;48.982;12.064;2023-04-06T03:33:44;8.63;;;5.07;;
12052;SDS011;6087;48.982;12.064;2023-04-06T03:36:11;4.77;;;4.33;;
12052;SDS011;6087;48.982;12.064;2023-04-06T03:38:38;6.07;;;4.13;;
12052;SDS011;6087;48.982;12.064;2023-04-06T03:41:06;6.03;;;4.33;;
12052;SDS011;6087;48.982;12.064;2023-04-06T03:43:33;6.17;;;4.00;;
12052;SDS011;6087;48.982;12.064;2023-04-06T03:46:00;6.20;;;4.60;;
12052;SDS011;6087;48.982;12.064;2023-04-06T03:48:27;6.47;;;4.80;;
12052;SDS011;6087;48.982;12.064;2023-04-06T03:50:54;5.30;;;3.90;;
12052;SDS011;6087;48.982;12.064;2023-04-06T03:53:21;8.27;;;3.83;;
12052;SDS011;6087;48.982;12.064;2023-04-06T03:55:48;5.17;;;4.43;;
12052;SDS011;6087;48.982;12.064;2023-04-06T03:58:16;6.30;;;4.47;;
12052;SDS011;6087;48.982;12.064;2023-04-06T04:00:43;5.10;;;4.17;;
12052;SDS011;6087;48.982;12.064;2023-04-06T04:03:10;7.53;;;4.63;;
12052;SDS011;6087;48.982;12.064;2023-04-06T04:05:37;4.83;;;3.90;;
12052;SDS011;6087;48.982;12.064;2023-04-06T04:08:04;6.27;;;4.77;;
12052;SDS011;6087;48.982;12.064;2023-04-06T04:10:31;4.43;;;3.97;;
12052;SDS011;6087;48.982;12.064;2023-04-06T04:12:58;5.97;;;4.23;;
12052;SDS011;6087;48.982;12.064;2023-04-06T04:15:27;7.07;;;4.30;;
12052;SDS011;6087;48.982;12.064;2023-04-06T04:17:54;6.10;;;4.30;;
12052;SDS011;6087;48.982;12.064;2023-04-06T04:20:21;5.07;;;4.27;;
12052;SDS011;6087;48.982;12.064;2023-04-06T04:22:47;5.27;;;3.97;;
12052;SDS011;6087;48.982;12.064;2023-04-06T04:25:18;4.47;;;4.00;;
12052;SDS011;6087;48.982;12.064;2023-04-06T04:27:48;4.80;;;3.87;;
12052;SDS011;6087;48.982;12.064;2023-04-06T04:30:15;5.57;;;4.30;;
12052;SDS011;6087;48.982;12.064;2023-04-06T04:32:43;6.43;;;4.50;;
12052;SDS011;6087;48.982;12.064;2023-04-06T04:35:10;6.77;;;4.60;;
12052;SDS011;6087;48.982;12.064;2023-04-06T04:37:38;6.57;;;4.70;;
12052;SDS011;6087;48.982;12.064;2023-04-06T04:40:05;5.93;;;4.00;;
12052;SDS011;6087;48.982;12.064;2023-04-06T04:42:36;8.00;;;4.53;;
12052;SDS011;6087;48.982;12.064;2023-04-06T04:45:03;6.17;;;4.27;;
12052;SDS011;6087;48.982;12.064;2023-04-06T04:47:31;6.93;;;4.97;;
12052;SDS011;6087;48.982;12.064;2023-04-06T04:49:59;5.60;;;4.27;;
12052;SDS011;6087;48.982;12.064;2023-04-06T04:52:26;7.73;;;5.23;;
12052;SDS011;6087;48.982;12.064;2023-04-06T04:54:53;7.70;;;4.30;;
12052;SDS011;6087;48.982;12.064;2023-04-06T04:57:20;5.10;;;4.47;;
12052;SDS011;6087;48.982;12.064;2023-04-06T04:59:47;6.73;;;4.60;;
12052;SDS011;6087;48.982;12.064;2023-04-06T05:02:15;7.10;;;4.70;;
12052;SDS011;6087;48.982;12.064;2023-04-06T05:04:42;5.43;;;4.77;;
12052;SDS011;6087;48.982;12.064;2023-04-06T05:07:11;9.93;;;5.33;;
12052;SDS011;6087;48.982;12.064;2023-04-06T05:09:38;6.20;;;4.60;;
12052;SDS011;6087;48.982;12.064;2023-04-06T05:12:05;6.00;;;4.90;;
12052;SDS011;6087;48.982;12.064;2023-04-06T05:14:32;5.13;;;4.63;;
12052;SDS011;6087;48.982;12.064;2023-04-06T05:16:59;5.80;;;4.90;;
12052;SDS011;6087;48.982;12.064;2023-04-06T05:19:26;6.77;;;4.60;;
12052;SDS011;6087;48.982;12.064;2023-04-06T05:21:53;6.87;;;5.03;;
12052;SDS011;6087;48.982;12.064;2023-04-06T05:24:21;8.27;;;5.43;;
12052;SDS011;6087;48.982;12.064;2023-04-06T05:26:48;8.50;;;4.83;;
12052;SDS011;6087;48.982;12.064;2023-04-06T05:29:15;7.10;;;5.10;;
12052;SDS011;6087;48.982;12.064;2023-04-06T05:31:48;5.77;;;5.27;;
12052;SDS011;6087;48.982;12.064;2023-04-06T05:34:17;7.63;;;5.23;;
12052;SDS011;6087;48.982;12.064;2023-04-06T05:36:44;7.10;;;5.50;;
12052;SDS011;6087;48.982;12.064;2023-04-06T05:39:11;10.07;;;5.17;;
12052;SDS011;6087;48.982;12.064;2023-04-06T05:41:40;5.77;;;4.87;;
12052;SDS011;6087;48.982;12.064;2023-04-06T05:44:07;10.47;;;5.50;;
12052;SDS011;6087;48.982;12.064;2023-04-06T05:46:34;8.83;;;5.10;;
12052;SDS011;6087;48.982;12.064;2023-04-06T05:49:01;5.50;;;5.00;;
12052;SDS011;6087;48.982;12.064;2023-04-06T05:51:28;6.50;;;5.33;;
12052;SDS011;6087;48.982;12.064;2023-04-06T05:53:55;6.67;;;5.30;;
12052;SDS011;6087;48.982;12.064;2023-04-06T05:56:23;6.60;;;5.63;;
12052;SDS011;6087;48.982;12.064;2023-04-06T05:58:51;7.60;;;5.73;;
12052;SDS011;6087;48.982;12.064;2023-04-06T06:01:18;7.17;;;5.00;;
12052;SDS011;6087;48.982;12.064;2023-04-06T06:03:48;6.33;;;5.13;;
12052;SDS011;6087;48.982;12.064;2023-04-06T06:06:21;6.37;;;4.93;;
12052;SDS011;6087;48.982;12.064;2023-04-06T06:08:54;6.53;;;5.93;;
12052;SDS011;6087;48.982;12.064;2023-04-06T06:11:23;8.33;;;5.00;;
12052;SDS011;6087;48.982;12.064;2023-04-06T06:13:51;6.73;;;5.23;;
12052;SDS011;6087;48.982;12.064;2023-04-06T06:16:18;6.23;;;5.63;;
12052;SDS011;6087;48.982;12.064;2023-04-06T06:18:45;8.73;;;6.07;;
12052;SDS011;6087;48.982;12.064;2023-04-06T06:21:12;7.50;;;5.20;;
12052;SDS011;6087;48.982;12.064;2023-04-06T06:23:39;6.67;;;5.13;;
12052;SDS011;6087;48.982;12.064;2023-04-06T06:26:08;7.27;;;4.80;;
12052;SDS011;6087;48.982;12.064;2023-04-06T06:28:35;7.70;;;5.70;;
12052;SDS011;6087;48.982;12.064;2023-04-06T06:31:03;9.00;;;5.03;;
12052;SDS011;6087;48.982;12.064;2023-04-06T06:33:30;6.40;;;5.37;;
12052;SDS011;6087;48.982;12.064;2023-04-06T06:35:57;5.70;;;4.77;;
12052;SDS011;6087;48.982;12.064;2023-04-06T06:38:24;7.40;;;5.20;;
12052;SDS011;6087;48.982;12.064;2023-04-06T06:40:51;7.37;;;5.27;;
12052;SDS011;6087;48.982;12.064;2023-04-06T06:43:18;7.07;;;5.23;;
12052;SDS011;6087;48.982;12.064;2023-04-06T06:45:45;7.50;;;5.07;;
12052;SDS011;6087;48.982;12.064;2023-04-06T06:48:13;7.27;;;5.90;;
12052;SDS011;6087;48.982;12.064;2023-04-06T06:50:40;6.03;;;4.73;;
12052;SDS011;6087;48.982;12.064;2023-04-06T06:53:10;7.27;;;5.00;;
12052;SDS011;6087;48.982;12.064;2023-04-06T06:55:43;6.57;;;5.30;;
12052;SDS011;6087;48.982;12.064;2023-04-06T06:58:10;7.43;;;5.27;;
12052;SDS011;6087;48.982;12.064;2023-04-06T07:00:37;5.27;;;4.77;;
12052;SDS011;6087;48.982;12.064;2023-04-06T07:03:04;6.43;;;4.87;;
12052;SDS011;6087;48.982;12.064;2023-04-06T07:05:32;7.13;;;5.03;;
12052;SDS011;6087;48.982;12.064;2023-04-06T07:07:59;5.87;;;4.33;;
12052;SDS011;6087;48.982;12.064;2023-04-06T07:10:26;7.80;;;5.27;;
12052;SDS011;6087;48.982;12.064;2023-04-06T07:12:53;6.77;;;4.97;;
12052;SDS011;6087;48.982;12.064;2023-04-06T07:15:21;5.13;;;4.63;;
12052;SDS011;6087;48.982;12.064;2023-04-06T07:17:48;5.60;;;4.83;;
12052;SDS011;6087;48.982;12.064;2023-04-06T07:20:15;7.83;;;4.67;;
12052;SDS011;6087;48.982;12.064;2023-04-06T07:22:43;6.20;;;5.17;;
12052;SDS011;6087;48.982;12.064;2023-04-06T07:25:10;5.37;;;4.87;;
12052;SDS011;6087;48.982;12.064;2023-04-06T07:27:37;8.00;;;5.73;;
12052;SDS011;6087;48.982;12.064;2023-04-06T07:30:05;6.20;;;4.90;;
12052;SDS011;6087;48.982;12.064;2023-04-06T07:32:32;8.03;;;4.87;;
12052;SDS011;6087;48.982;12.064;2023-04-06T07:35:00;7.27;;;4.67;;
12052;SDS011;6087;48.982;12.064;2023-04-06T07:37:27;8.33;;;5.13;;
12052;SDS011;6087;48.982;12.064;2023-04-06T07:39:56;6.30;;;4.97;;
12052;SDS011;6087;48.982;12.064;2023-04-06T07:42:23;5.60;;;4.40;;
12052;SDS011;6087;48.982;12.064;2023-04-06T07:44:50;5.50;;;4.67;;
12052;SDS011;6087;48.982;12.064;2023-04-06T07:47:17;7.10;;;5.10;;
12052;SDS011;6087;48.982;12.064;2023-04-06T07:49:44;7.50;;;4.90;;
12052;SDS011;6087;48.982;12.064;2023-04-06T07:52:11;5.90;;;5.00;;
12052;SDS011;6087;48.982;12.064;2023-04-06T07:54:38;7.33;;;4.80;;
12052;SDS011;6087;48.982;12.064;2023-04-06T07:57:07;5.10;;;4.60;;
12052;SDS011;6087;48.982;12.064;2023-04-06T07:59:34;11.50;;;5.13;;
12052;SDS011;6087;48.982;12.064;2023-04-06T08:02:01;5.20;;;4.47;;
12052;SDS011;6087;48.982;12.064;2023-04-06T08:04:28;6.07;;;4.87;;
12052;SDS011;6087;48.982;12.064;2023-04-06T08:06:55;5.60;;;4.80;;
12052;SDS011;6087;48.982;12.064;2023-04-06T08:09:25;5.07;;;4.57;;
12052;SDS011;6087;48.982;12.064;2023-04-06T08:11:52;7.40;;;5.17;;
12052;SDS011;6087;48.982;12.064;2023-04-06T08:14:21;10.10;;;4.93;;
12052;SDS011;6087;48.982;12.064;2023-04-06T08:16:48;7.67;;;5.33;;
12052;SDS011;6087;48.982;12.064;2023-04-06T08:19:18;6.07;;;5.17;;
12052;SDS011;6087;48.982;12.064;2023-04-06T08:21:44;8.53;;;5.10;;
12052;SDS011;6087;48.982;12.064;2023-04-06T08:24:12;7.13;;;5.00;;
12052;SDS011;6087;48.982;12.064;2023-04-06T08:26:48;7.80;;;5.00;;
12052;SDS011;6087;48.982;12.064;2023-04-06T08:29:15;8.47;;;5.47;;
12052;SDS011;6087;48.982;12.064;2023-04-06T08:31:44;7.47;;;4.93;;
12052;SDS011;6087;48.982;12.064;2023-04-06T08:34:20;6.10;;;5.47;;
12052;SDS011;6087;48.982;12.064;2023-04-06T08:36:50;7.00;;;5.07;;
12052;SDS011;6087;48.982;12.064;2023-04-06T08:39:17;8.07;;;5.10;;
12052;SDS011;6087;48.982;12.064;2023-04-06T08:41:50;7.93;;;5.27;;
12052;SDS011;6087;48.982;12.064;2023-04-06T08:44:18;7.93;;;5.33;;
12052;SDS011;6087;48.982;12.064;2023-04-06T08:46:49;8.40;;;5.23;;
12052;SDS011;6087;48.982;12.064;2023-04-06T08:49:19;7.20;;;4.80;;
12052;SDS011;6087;48.982;12.064;2023-04-06T08:51:46;7.13;;;4.93;;
12052;SDS011;6087;48.982;12.064;2023-04-06T08:54:13;6.37;;;5.17;;
12052;SDS011;6087;48.982;12.064;2023-04-06T08:56:40;6.53;;;5.00;;
12052;SDS011;6087;48.982;12.064;2023-04-06T08:59:08;6.57;;;4.97;;
12052;SDS011;6087;48.982;12.064;2023-04-06T09:01:37;6.40;;;5.33;;
12052;SDS011;6087;48.982;12.064;2023-04-06T09:04:07;5.03;;;4.50;;
12052;SDS011;6087;48.982;12.064;2023-04-06T09:06:36;7.27;;;4.50;;
12052;SDS011;6087;48.982;12.064;2023-04-06T09:09:03;7.60;;;5.10;;
12052;SDS011;6087;48.982;12.064;2023-04-06T09:11:40;5.70;;;4.77;;
12052;SDS011;6087;48.982;12.064;2023-04-06T09:14:08;5.77;;;4.93;;
12052;SDS011;6087;48.982;12.064;2023-04-06T09:16:38;7.37;;;5.37;;
12052;SDS011;6087;48.982;12.064;2023-04-06T09:19:08;6.63;;;4.43;;
12052;SDS011;6087;48.982;12.064;2023-04-06T09:21:36;8.20;;;5.33;;
12052;SDS011;6087;48.982;12.064;2023-04-06T09:24:06;8.70;;;4.60;;
12052;SDS011;6087;48.982;12.064;2023-04-06T09:26:44;6.43;;;4.60;;
12052;SDS011;6087;48.982;12.064;2023-04-06T09:29:21;5.40;;;4.50;;
12052;SDS011;6087;48.982;12.064;2023-04-06T09:31:49;10.77;;;5.10;;
12052;SDS011;6087;48.982;12.064;2023-04-06T09:34:23;8.53;;;5.33;;
12052;SDS011;6087;48.982;12.064;2023-04-06T09:36:50;6.90;;;4.40;;
12052;SDS011;6087;48.982;12.064;2023-04-06T09:39:21;7.77;;;4.83;;
12052;SDS011;6087;48.982;12.064;2023-04-06T09:41:52;8.00;;;4.90;;
12052;SDS011;6087;48.982;12.064;2023-04-06T09:44:23;7.73;;;4.80;;
12052;SDS011;6087;48.982;12.064;2023-04-06T09:46:51;5.23;;;4.50;;
12052;SDS011;6087;48.982;12.064;2023-04-06T09:49:20;5.60;;;4.80;;
12052;SDS011;6087;48.982;12.064;2023-04-06T09:51:52;6.03;;;4.80;;
12052;SDS011;6087;48.982;12.064;2023-04-06T09:54:22;7.30;;;5.60;;
12052;SDS011;6087;48.982;12.064;2023-04-06T09:56:51;5.90;;;5.17;;
12052;SDS011;6087;48.982;12.064;2023-04-06T09:59:35;6.27;;;4.57;;
12052;SDS011;6087;48.982;12.064;2023-04-06T10:02:12;4.87;;;4.43;;
12052;SDS011;6087;48.982;12.064;2023-04-06T10:04:50;5.00;;;4.33;;
12052;SDS011;6087;48.982;12.064;2023-04-06T10:07:23;5.43;;;4.57;;
12052;SDS011;6087;48.982;12.064;2023-04-06T10:09:51;5.40;;;4.77;;
12052;SDS011;6087;48.982;12.064;2023-04-06T10:12:20;5.93;;;5.30;;
12052;SDS011;6087;48.982;12.064;2023-04-06T10:14:47;6.40;;;5.47;;
12052;SDS011;6087;48.982;12.064;2023-04-06T10:17:15;6.20;;;4.67;;
12052;SDS011;6087;48.982;12.064;2023-04-06T10:19:44;5.30;;;4.80;;
12052;SDS011;6087;48.982;12.064;2023-04-06T10:22:18;6.17;;;5.23;;
12052;SDS011;6087;48.982;12.064;2023-04-06T10:24:52;6.43;;;4.93;;
12052;SDS011;6087;48.982;12.064;2023-04-06T10:27:27;5.60;;;4.67;;
12052;SDS011;6087;48.982;12.064;2023-04-06T10:29:54;6.37;;;5.17;;
12052;SDS011;6087;48.982;12.064;2023-04-06T10:32:32;6.60;;;5.13;;
12052;SDS011;6087;48.982;12.064;2023-04-06T10:35:07;5.87;;;4.97;;
12052;SDS011;6087;48.982;12.064;2023-04-06T10:37:49;8.23;;;6.83;;
12052;SDS011;6087;48.982;12.064;2023-04-06T10:40:20;5.30;;;4.80;;
12052;SDS011;6087;48.982;12.064;2023-04-06T10:42:50;5.93;;;5.30;;
12052;SDS011;6087;48.982;12.064;2023-04-06T10:45:18;5.90;;;5.03;;
12052;SDS011;6087;48.982;12.064;2023-04-06T10:47:46;7.30;;;5.60;;
12052;SDS011;6087;48.982;12.064;2023-04-06T10:50:14;6.10;;;5.20;;
12052;SDS011;6087;48.982;12.064;2023-04-06T10:52:43;6.20;;;5.17;;
12052;SDS011;6087;48.982;12.064;2023-04-06T10:55:12;6.50;;;5.90;;
12052;SDS011;6087;48.982;12.064;2023-04-06T10:57:39;7.43;;;5.30;;
12052;SDS011;6087;48.982;12.064;2023-04-06T11:00:07;6.27;;;5.67;;
12052;SDS011;6087;48.982;12.064;2023-04-06T11:02:35;5.60;;;5.00;;
12052;SDS011;6087;48.982;12.064;2023-04-06T11:05:02;5.60;;;4.67;;
12052;SDS011;6087;48.982;12.064;2023-04-06T11:07:30;8.23;;;6.20;;
12052;SDS011;6087;48.982;12.064;2023-04-06T11:09:57;6.00;;;5.40;;
12052;SDS011;6087;48.982;12.064;2023-04-06T11:12:27;6.87;;;5.83;;
12052;SDS011;6087;48.982;12.064;2023-04-06T11:14:59;6.10;;;5.57;;
12052;SDS011;6087;48.982;12.064;2023-04-06T11:17:29;7.57;;;5.60;;
12052;SDS011;6087;48.982;12.064;2023-04-06T11:19:57;7.57;;;5.33;;
12052;SDS011;6087;48.982;12.064;2023-04-06T11:22:24;6.57;;;5.80;;
12052;SDS011;6087;48.982;12.064;2023-04-06T11:24:51;7.30;;;6.57;;
12052;SDS011;6087;48.982;12.064;2023-04-06T11:27:19;7.13;;;6.43;;
12052;SDS011;6087;48.982;12.064;2023-04-06T11:29:48;7.17;;;6.10;;
12052;SDS011;6087;48.982;12.064;2023-04-06T11:32:20;7.93;;;5.83;;
12052;SDS011;6087;48.982;12.064;2023-04-06T11:34:48;8.60;;;6.07;;
12052;SDS011;6087;48.982;12.064;2023-04-06T11:37:15;8.73;;;5.37;;
12052;SDS011;6087;48.982;12.064;2023-04-06T11:39:43;9.90;;;5.93;;
12052;SDS011;6087;48.982;12.064;2023-04-06T11:42:20;7.57;;;5.90;;
12052;SDS011;6087;48.982;12.064;2023-04-06T11:44:57;7.17;;;5.73;;
12052;SDS011;6087;48.982;12.064;2023-04-06T11:47:28;6.33;;;5.67;;
12052;SDS011;6087;48.982;12.064;2023-04-06T11:49:55;8.60;;;5.60;;
12052;SDS011;6087;48.982;12.064;2023-04-06T11:52:31;8.50;;;5.73;;
12052;SDS011;6087;48.982;12.064;2023-04-06T11:55:10;7.17;;;6.03;;
12052;SDS011;6087;48.982;12.064;2023-04-06T11:57:40;6.30;;;5.63;;
12052;SDS011;6087;48.982;12.064;2023-04-06T12:00:09;7.17;;;6.43;;
12052;SDS011;6087;48.982;12.064;2023-04-06T12:02:37;6.37;;;5.40;;
12052;SDS011;6087;48.982;12.064;2023-04-06T12:05:07;5.83;;;5.23;;
12052;SDS011;6087;48.982;12.064;2023-04-06T12:07:37;8.23;;;5.70;;
12052;SDS011;6087;48.982;12.064;2023-04-06T12:10:05;8.52;;;5.68;;
12052;SDS011;6087;48.982;12.064;2023-04-06T12:12:32;9.98;;;6.03;;
12052;SDS011;6087;48.982;12.064;2023-04-06T12:14:59;5.50;;;4.70;;
12052;SDS011;6087;48.982;12.064;2023-04-06T12:17:27;7.18;;;5.50;;
12052;SDS011;6087;48.982;12.064;2023-04-06T12:19:54;11.40;;;5.47;;
12052;SDS011;6087;48.982;12.064;2023-04-06T12:22:24;6.95;;;5.38;;
12052;SDS011;6087;48.982;12.064;2023-04-06T12:24:51;8.32;;;5.45;;
12052;SDS011;6087;48.982;12.064;2023-04-06T12:27:21;6.13;;;5.53;;
12052;SDS011;6087;48.982;12.064;2023-04-06T12:29:48;5.78;;;5.15;;
12052;SDS011;6087;48.982;12.064;2023-04-06T12:32:15;7.78;;;5.70;;
12052;SDS011;6087;48.982;12.064;2023-04-06T12:34:46;6.40;;;5.63;;
12052;SDS011;6087;48.982;12.064;2023-04-06T12:37:13;5.75;;;5.20;;
12052;SDS011;6087;48.982;12.064;2023-04-06T12:39:40;5.07;;;4.65;;
12052;SDS011;6087;48.982;12.064;2023-04-06T12:42:09;9.23;;;6.07;;
12052;SDS011;6087;48.982;12.064;2023-04-06T12:44:37;8.95;;;5.95;;
12052;SDS011;6087;48.982;12.064;2023-04-06T12:47:04;7.85;;;6.18;;
12052;SDS011;6087;48.982;12.064;2023-04-06T12:49:32;7.93;;;4.97;;
12052;SDS011;6087;48.982;12.064;2023-04-06T12:52:00;6.88;;;6.20;;
12052;SDS011;6087;48.982;12.064;2023-04-06T12:54:28;6.40;;;5.80;;
12052;SDS011;6087;48.982;12.064;2023-04-06T12:56:55;7.28;;;5.50;;
12052;SDS011;6087;48.982;12.064;2023-04-06T12:59:22;8.93;;;6.13;;
12052;SDS011;6087;48.982;12.064;2023-04-06T13:01:50;6.53;;;5.82;;
12052;SDS011;6087;48.982;12.064;2023-04-06T13:04:17;6.35;;;5.40;;
12052;SDS011;6087;48.982;12.064;2023-04-06T13:06:44;6.03;;;5.43;;
12052;SDS011;6087;48.982;12.064;2023-04-06T13:09:13;5.82;;;5.10;;
12052;SDS011;6087;48.982;12.064;2023-04-06T13:11:39;8.65;;;6.50;;
12052;SDS011;6087;48.982;12.064;2023-04-06T13:14:06;7.95;;;6.15;;
12052;SDS011;6087;48.982;12.064;2023-04-06T13:16:33;6.32;;;5.72;;
12052;SDS011;6087;48.982;12.064;2023-04-06T13:19:01;6.80;;;6.15;;
12052;SDS011;6087;48.982;12.064;2023-04-06T13:21:28;6.90;;;5.75;;
12052;SDS011;6087;48.982;12.064;2023-04-06T13:23:55;5.57;;;5.07;;
12052;SDS011;6087;48.982;12.064;2023-04-06T13:26:23;6.80;;;5.80;;
12052;SDS011;6087;48.982;12.064;2023-04-06T13:28:51;6.72;;;5.55;;
12052;SDS011;6087;48.982;12.064;2023-04-06T13:31:18;6.38;;;5.40;;
12052;SDS011;6087;48.982;12.064;2023-04-06T13:33:44;5.93;;;5.43;;
12052;SDS011;6087;48.982;12.064;2023-04-06T13:36:11;6.53;;;5.90;;
12052;SDS011;6087;48.982;12.064;2023-04-06T13:38:38;6.00;;;5.43;;
12052;SDS011;6087;48.982;12.064;2023-04-06T13:41:06;6.30;;;5.68;;
12052;SDS011;6087;48.982;12.064;2023-04-06T13:43:34;8.38;;;6.13;;
12052;SDS011;6087;48.982;12.064;2023-04-06T13:46:01;8.23;;;5.55;;
12052;SDS011;6087;48.982;12.064;2023-04-06T13:48:28;6.82;;;5.32;;
12052;SDS011;6087;48.982;12.064;2023-04-06T13:50:55;6.45;;;5.85;;
12052;SDS011;6087;48.982;12.064;2023-04-06T13:53:23;5.82;;;5.22;;
12052;SDS011;6087;48.982;12.064;2023-04-06T13:55:53;5.78;;;5.30;;
12052;SDS011;6087;48.982;12.064;2023-04-06T13:58:21;6.07;;;5.50;;
12052;SDS011;6087;48.982;12.064;2023-04-06T14:00:49;6.40;;;5.03;;
12052;SDS011;6087;48.982;12.064;2023-04-06T14:03:16;6.03;;;4.93;;
12052;SDS011;6087;48.982;12.064;2023-04-06T14:05:43;7.13;;;6.13;;
12052;SDS011;6087;48.982;12.064;2023-04-06T14:08:10;6.38;;;5.57;;
12052;SDS011;6087;48.982;12.064;2023-04-06T14:10:37;5.70;;;4.47;;
12052;SDS011;6087;48.982;12.064;2023-04-06T14:13:05;7.13;;;5.75;;
12052;SDS011;6087;48.982;12.064;2023-04-06T14:15:32;7.13;;;5.60;;
12052;SDS011;6087;48.982;12.064;2023-04-06T14:18:01;5.20;;;4.70;;
12052;SDS011;6087;48.982;12.064;2023-04-06T14:20:30;6.35;;;5.47;;
12052;SDS011;6087;48.982;12.064;2023-04-06T14:22:59;7.57;;;5.30;;
12052;SDS011;6087;48.982;12.064;2023-04-06T14:25:26;4.60;;;4.20;;
12052;SDS011;6087;48.982;12.064;2023-04-06T14:27:53;5.55;;;4.95;;
12052;SDS011;6087;48.982;12.064;2023-04-06T14:30:20;5.93;;;4.90;;
12052;SDS011;6087;48.982;12.064;2023-04-06T14:32:47;4.60;;;4.18;;
12052;SDS011;6087;48.982;12.064;2023-04-06T14:35:15;5.22;;;4.70;;
12052;SDS011;6087;48.982;12.064;2023-04-06T14:37:42;4.90;;;4.50;;
12052;SDS011;6087;48.982;12.064;2023-04-06T14:40:09;5.18;;;4.22;;
12052;SDS011;6087;48.982;12.064;2023-04-06T14:42:36;5.95;;;4.93;;
12052;SDS011;6087;48.982;12.064;2023-04-06T14:45:06;4.93;;;4.50;;
12052;SDS011;6087;48.982;12.064;2023-04-06T14:47:34;4.85;;;4.40;;
12052;SDS011;6087;48.982;12.064;2023-04-06T14:50:01;4.80;;;4.30;;
12052;SDS011;6087;48.982;12.064;2023-04-06T14:52:29;4.75;;;4.25;;
12052;SDS011;6087;48.982;12.064;2023-04-06T14:54:56;4.80;;;4.30;;